This is the latest recevied weather packets stored in our database for station/object DB0TGO-13. If no packets are shown the sender has not sent any weather packets the latest 1 day(s).
| Time | Temp. | Humidity | Pressure | Rain* | Wind** | Luminosity | Snow |
|---|---|---|---|---|---|---|---|
| 1777992302 | 19.44° C | 59% | 1002.6 hPa | - | 1.79 m/s, 330° | - | - |
| 1777991403 | 19.44° C | 59% | 1002.6 hPa | - | 2.68 m/s, 330° | - | - |
| 1777990502 | 18.89° C | 64% | 1002.8 hPa | - | 2.68 m/s, 330° | - | - |
| 1777989602 | 18.89° C | 64% | 1002.8 hPa | - | 2.68 m/s, 10° | - | - |
| 1777988702 | 18.89° C | 63% | 1003 hPa | - | 2.68 m/s, 290° | - | - |
| 1777987802 | 18.89° C | 63% | 1003 hPa | - | 2.68 m/s, 290° | - | - |
| 1777986902 | 18.33° C | 66% | 1003.2 hPa | - | 2.68 m/s, 290° | - | - |
| 1777986003 | 18.33° C | 66% | 1003.2 hPa | - | 1.34 m/s, 360° | - | - |
| 1777985103 | 17.78° C | 69% | 1003.3 hPa | - | 1.34 m/s, 360° | - | - |
| 1777984202 | 17.78° C | 69% | 1003.3 hPa | - | 1.34 m/s, 60° | - | - |
| 1777983302 | 17.78° C | 69% | 1003.6 hPa | - | 1.34 m/s, 60° | - | - |
| 1777982402 | 17.78° C | 69% | 1003.6 hPa | - | 0.45 m/s, 100° | - | - |
| 1777981503 | 17.22° C | 70% | 1003.8 hPa | - | 0.89 m/s, 330° | - | - |
| 1777980602 | 17.22° C | 70% | 1003.8 hPa | - | 0.89 m/s, 330° | - | - |
| 1777979702 | 17.22° C | 75% | 1003.9 hPa | - | 0.45 m/s, 330° | - | - |
| 1777978802 | 17.22° C | 75% | 1003.9 hPa | - | 0.45 m/s, 330° | - | - |
| 1777977903 | 16.67° C | 76% | 1003.9 hPa | - | 0.45 m/s, 330° | - | - |
| 1777977002 | 16.67° C | 76% | 1003.9 hPa | - | 0.89 m/s, 20° | - | - |
| 1777976102 | 16.11° C | 76% | 1003.9 hPa | - | 0.89 m/s, 20° | - | - |
| 1777975203 | 16.11° C | 76% | 1003.9 hPa | - | 0.45 m/s, 110° | - | - |
| 1777974302 | 15.56° C | 78% | 1004.1 hPa | - | 0.45 m/s, 110° | - | - |
| 1777973402 | 15.56° C | 78% | 1004.1 hPa | - | 1.34 m/s, 60° | - | - |
| 1777972502 | 15° C | 80% | 1004.2 hPa | - | 1.34 m/s, 90° | - | - |
| 1777971602 | 15° C | 80% | 1004.2 hPa | - | 1.34 m/s, 90° | - | - |
| 1777970703 | 15° C | 79% | 1004.3 hPa | - | 1.79 m/s, 90° | - | - |
* Rain since midnight (hover to see other rain measurements)
** Current wind speed in m/s (hover to see current wind gust speed)